BAW125 RJTT-KTPA
Flight info
| Callsign | BAW125 |
|---|---|
| Flight time | N/A |
| Altitude | 31000 |
| Route | AGRIS Y11 NAVER Y139 ASIBE Y116 AWE Y114 ANIMO/K0913F310 T565 PAKLI A956 UMOLA T564 NAMUL/K0920F330 T564 RUSOR/N0487F330 B241 ROCET R338 OME J122 GAL NCA19 CHAPO/N0492F350 DCT 63N130W DCT YFS J521 YSM DCT PETMA Q963 YVC Q919 KENRU Q906 OTLUR/N0494F370 Q834 DLH J89 BAE J101 OBK J89 IIU Q79 KAILL Q118 THRSR Q79 IISLY DCT KRVUR DADES2 |
| Aircraft | B77W/H-SDE1E2E3FGHIJ2J3J4J5M1RWXY/LB1D1 |
Departure
| Time | 2026-05-06 01:36 |
|---|---|
| Airport | Tokyo Haneda International Airport (RJTT) |
Arrival
| Time | N/A |
|---|---|
| Airport | Tampa International Airport (KTPA) |
| Time | Latitude | Longitude | Altitude | Speed | Heading |
|---|---|---|---|---|---|
| 2026-05-06 01:05 | 35.54648 | 139.76972 | 28 ft | 0 kts | 240° |
| 2026-05-06 01:22 | 35.54658 | 139.76993 | 27 ft | 4 kts | 240° |
| 2026-05-06 01:22 | 35.54672 | 139.77022 | 27 ft | 4 kts | 240° |
| 2026-05-06 01:22 | 35.54685 | 139.77050 | 27 ft | 3 kts | 239° |
| 2026-05-06 01:23 | 35.54697 | 139.77071 | 27 ft | 4 kts | 213° |
| 2026-05-06 01:23 | 35.54706 | 139.77079 | 27 ft | 4 kts | 162° |
| 2026-05-06 01:23 | 35.54720 | 139.77066 | 26 ft | 4 kts | 134° |
| 2026-05-06 01:23 | 35.54740 | 139.77043 | 25 ft | 4 kts | 146° |
| 2026-05-06 01:24 | 35.54745 | 139.77039 | 25 ft | 0 kts | 150° |
| 2026-05-06 01:28 | 35.54729 | 139.77066 | 25 ft | 7 kts | 109° |
| 2026-05-06 01:28 | 35.54743 | 139.77122 | 27 ft | 7 kts | 58° |
| 2026-05-06 01:29 | 35.54779 | 139.77193 | 27 ft | 12 kts | 58° |
| 2026-05-06 01:29 | 35.54834 | 139.77303 | 27 ft | 18 kts | 58° |
| 2026-05-06 01:29 | 35.54925 | 139.77395 | 27 ft | 18 kts | 348° |
| 2026-05-06 01:29 | 35.55053 | 139.77316 | 27 ft | 22 kts | 331° |
| 2026-05-06 01:30 | 35.55189 | 139.77224 | 27 ft | 22 kts | 330° |
| 2026-05-06 01:30 | 35.55326 | 139.77130 | 27 ft | 22 kts | 330° |
| 2026-05-06 01:30 | 35.55461 | 139.77041 | 26 ft | 19 kts | 345° |
| 2026-05-06 01:30 | 35.55570 | 139.77094 | 27 ft | 22 kts | 29° |
| 2026-05-06 01:31 | 35.55696 | 139.77203 | 27 ft | 22 kts | 36° |
| 2026-05-06 01:31 | 35.55820 | 139.77316 | 27 ft | 22 kts | 41° |
| 2026-05-06 01:31 | 35.55910 | 139.77469 | 27 ft | 22 kts | 58° |
| 2026-05-06 01:31 | 35.55991 | 139.77629 | 28 ft | 22 kts | 58° |
| 2026-05-06 01:32 | 35.56071 | 139.77791 | 28 ft | 22 kts | 61° |
| 2026-05-06 01:32 | 35.56140 | 139.77960 | 27 ft | 22 kts | 61° |
| 2026-05-06 01:32 | 35.56217 | 139.78122 | 27 ft | 22 kts | 60° |
| 2026-05-06 01:32 | 35.56294 | 139.78286 | 27 ft | 22 kts | 58° |
| 2026-05-06 01:33 | 35.56369 | 139.78438 | 27 ft | 16 kts | 59° |
| 2026-05-06 01:33 | 35.56426 | 139.78556 | 27 ft | 16 kts | 59° |
| 2026-05-06 01:33 | 35.56505 | 139.78641 | 28 ft | 14 kts | 18° |
| 2026-05-06 01:33 | 35.56525 | 139.78671 | 28 ft | 2 kts | 101° |
| 2026-05-06 01:34 | 35.56495 | 139.78720 | 28 ft | 0 kts | 144° |
| 2026-05-06 01:35 | 35.56478 | 139.78734 | 28 ft | 11 kts | 146° |
| 2026-05-06 01:35 | 35.56285 | 139.78876 | 28 ft | 68 kts | 149° |
| 2026-05-06 01:35 | 35.55613 | 139.79350 | 29 ft | 154 kts | 150° |
| 2026-05-06 01:35 | 35.54434 | 139.80150 | 89 ft | 225 kts | 152° |
| 2026-05-06 01:36 | 35.53029 | 139.81214 | 923 ft | 246 kts | 147° |
| 2026-05-06 01:36 | 35.51849 | 139.82620 | 2515 ft | 231 kts | 126° |
| 2026-05-06 01:36 | 35.51202 | 139.84512 | 2879 ft | 262 kts | 104° |
| 2026-05-06 01:36 | 35.51240 | 139.86856 | 3266 ft | 280 kts | 74° |
| 2026-05-06 01:37 | 35.52181 | 139.88859 | 4438 ft | 268 kts | 45° |
| 2026-05-06 01:37 | 35.53704 | 139.90107 | 5122 ft | 271 kts | 17° |
| 2026-05-06 01:37 | 35.55569 | 139.90399 | 5642 ft | 271 kts | 348° |
| 2026-05-06 01:37 | 35.57378 | 139.89807 | 6293 ft | 265 kts | 337° |
| 2026-05-06 01:38 | 35.59055 | 139.88977 | 6978 ft | 261 kts | 331° |
| 2026-05-06 01:38 | 35.60749 | 139.88007 | 7280 ft | 277 kts | 331° |
| 2026-05-06 01:38 | 35.62570 | 139.86950 | 7414 ft | 297 kts | 334° |
| 2026-05-06 01:38 | 35.64501 | 139.86007 | 8085 ft | 298 kts | 338° |
| 2026-05-06 01:39 | 35.66463 | 139.85215 | 8709 ft | 302 kts | 343° |
| 2026-05-06 01:39 | 35.68534 | 139.84662 | 9300 ft | 307 kts | 350° |
| 2026-05-06 01:39 | 35.70672 | 139.84370 | 9962 ft | 310 kts | 356° |
| 2026-05-06 01:39 | 35.72855 | 139.84284 | 10489 ft | 320 kts | 0° |
| 2026-05-06 01:40 | 35.75141 | 139.84351 | 10637 ft | 342 kts | 3° |
| 2026-05-06 01:40 | 35.77596 | 139.84544 | 10809 ft | 363 kts | 5° |
| 2026-05-06 01:40 | 35.80190 | 139.84834 | 11060 ft | 380 kts | 6° |
| 2026-05-06 01:40 | 35.82820 | 139.85182 | 11590 ft | 388 kts | 7° |
| 2026-05-06 01:41 | 35.85525 | 139.85571 | 12279 ft | 391 kts | 7° |
| 2026-05-06 01:41 | 35.88234 | 139.85978 | 13108 ft | 391 kts | 7° |
| 2026-05-06 01:41 | 35.90923 | 139.86389 | 13922 ft | 391 kts | 7° |
| 2026-05-06 01:41 | 35.93632 | 139.86807 | 14606 ft | 395 kts | 6° |
| 2026-05-06 01:42 | 35.96391 | 139.87232 | 15102 ft | 403 kts | 6° |
| 2026-05-06 01:42 | 35.99167 | 139.87660 | 15683 ft | 409 kts | 6° |
| 2026-05-06 01:42 | 36.02048 | 139.88105 | 16259 ft | 415 kts | 5° |